sensor_id;sensor_type;location;lat;lon;timestamp;P1;durP1;ratioP1;P2;durP2;ratioP2
81619;SDS011;71028;53.410;6.710;2024-02-28T00:01:51;26.27;;;10.63;;
81619;SDS011;71028;53.410;6.710;2024-02-28T00:04:17;28.55;;;12.68;;
81619;SDS011;71028;53.410;6.710;2024-02-28T00:06:43;31.15;;;12.80;;
81619;SDS011;71028;53.410;6.710;2024-02-28T00:09:11;30.70;;;11.88;;
81619;SDS011;71028;53.410;6.710;2024-02-28T00:11:44;27.33;;;12.48;;
81619;SDS011;71028;53.410;6.710;2024-02-28T00:14:10;29.73;;;12.52;;
81619;SDS011;71028;53.410;6.710;2024-02-28T00:16:39;28.67;;;12.07;;
81619;SDS011;71028;53.410;6.710;2024-02-28T00:19:06;22.38;;;10.05;;
81619;SDS011;71028;53.410;6.710;2024-02-28T00:21:32;26.75;;;11.05;;
81619;SDS011;71028;53.410;6.710;2024-02-28T00:23:58;28.38;;;12.02;;
81619;SDS011;71028;53.410;6.710;2024-02-28T00:26:25;23.80;;;10.57;;
81619;SDS011;71028;53.410;6.710;2024-02-28T00:28:51;24.92;;;11.15;;
81619;SDS011;71028;53.410;6.710;2024-02-28T00:31:17;30.08;;;13.40;;
81619;SDS011;71028;53.410;6.710;2024-02-28T00:33:43;27.55;;;11.10;;
81619;SDS011;71028;53.410;6.710;2024-02-28T00:36:09;30.35;;;13.20;;
81619;SDS011;71028;53.410;6.710;2024-02-28T00:38:35;27.90;;;11.15;;
81619;SDS011;71028;53.410;6.710;2024-02-28T00:41:01;28.20;;;11.02;;
81619;SDS011;71028;53.410;6.710;2024-02-28T00:43:27;27.48;;;12.13;;
81619;SDS011;71028;53.410;6.710;2024-02-28T00:45:53;23.45;;;11.50;;
81619;SDS011;71028;53.410;6.710;2024-02-28T00:48:21;26.55;;;11.25;;
81619;SDS011;71028;53.410;6.710;2024-02-28T00:50:47;26.02;;;11.52;;
81619;SDS011;71028;53.410;6.710;2024-02-28T00:53:14;30.98;;;11.95;;
81619;SDS011;71028;53.410;6.710;2024-02-28T00:55:39;26.45;;;11.50;;
81619;SDS011;71028;53.410;6.710;2024-02-28T00:58:05;30.58;;;12.20;;
81619;SDS011;71028;53.410;6.710;2024-02-28T01:00:31;26.40;;;12.23;;
81619;SDS011;71028;53.410;6.710;2024-02-28T01:02:58;26.50;;;11.23;;
81619;SDS011;71028;53.410;6.710;2024-02-28T01:05:24;25.02;;;10.43;;
81619;SDS011;71028;53.410;6.710;2024-02-28T01:07:49;26.13;;;10.93;;
81619;SDS011;71028;53.410;6.710;2024-02-28T01:10:16;27.17;;;12.27;;
81619;SDS011;71028;53.410;6.710;2024-02-28T01:12:42;26.42;;;10.85;;
81619;SDS011;71028;53.410;6.710;2024-02-28T01:15:08;28.17;;;11.52;;
81619;SDS011;71028;53.410;6.710;2024-02-28T01:17:34;28.88;;;10.85;;
81619;SDS011;71028;53.410;6.710;2024-02-28T01:20:00;27.05;;;12.48;;
81619;SDS011;71028;53.410;6.710;2024-02-28T01:22:26;30.15;;;12.80;;
81619;SDS011;71028;53.410;6.710;2024-02-28T01:24:52;27.27;;;11.25;;
81619;SDS011;71028;53.410;6.710;2024-02-28T01:27:18;29.63;;;12.13;;
81619;SDS011;71028;53.410;6.710;2024-02-28T01:29:44;27.55;;;11.05;;
81619;SDS011;71028;53.410;6.710;2024-02-28T01:32:10;28.42;;;11.88;;
81619;SDS011;71028;53.410;6.710;2024-02-28T01:34:36;30.63;;;11.90;;
81619;SDS011;71028;53.410;6.710;2024-02-28T01:37:01;30.40;;;10.77;;
81619;SDS011;71028;53.410;6.710;2024-02-28T01:39:27;24.80;;;11.35;;
81619;SDS011;71028;53.410;6.710;2024-02-28T01:41:54;34.35;;;11.90;;
81619;SDS011;71028;53.410;6.710;2024-02-28T01:44:20;32.42;;;12.02;;
81619;SDS011;71028;53.410;6.710;2024-02-28T01:46:46;32.35;;;12.43;;
81619;SDS011;71028;53.410;6.710;2024-02-28T01:49:12;31.58;;;12.27;;
81619;SDS011;71028;53.410;6.710;2024-02-28T01:51:39;31.23;;;13.15;;
81619;SDS011;71028;53.410;6.710;2024-02-28T01:54:05;29.58;;;13.25;;
81619;SDS011;71028;53.410;6.710;2024-02-28T01:56:31;31.08;;;12.18;;
81619;SDS011;71028;53.410;6.710;2024-02-28T01:58:58;30.90;;;11.27;;
81619;SDS011;71028;53.410;6.710;2024-02-28T02:01:25;31.85;;;13.10;;
81619;SDS011;71028;53.410;6.710;2024-02-28T02:03:52;27.42;;;12.32;;
81619;SDS011;71028;53.410;6.710;2024-02-28T02:06:18;30.60;;;12.32;;
81619;SDS011;71028;53.410;6.710;2024-02-28T02:08:45;37.35;;;14.05;;
81619;SDS011;71028;53.410;6.710;2024-02-28T02:11:11;28.73;;;11.75;;
81619;SDS011;71028;53.410;6.710;2024-02-28T02:13:48;23.95;;;10.65;;
81619;SDS011;71028;53.410;6.710;2024-02-28T02:16:14;32.58;;;12.50;;
81619;SDS011;71028;53.410;6.710;2024-02-28T02:18:40;30.02;;;11.55;;
81619;SDS011;71028;53.410;6.710;2024-02-28T02:21:06;23.65;;;11.57;;
81619;SDS011;71028;53.410;6.710;2024-02-28T02:23:34;24.10;;;10.07;;
81619;SDS011;71028;53.410;6.710;2024-02-28T02:26:00;24.30;;;11.48;;
81619;SDS011;71028;53.410;6.710;2024-02-28T02:28:26;23.10;;;9.95;;
81619;SDS011;71028;53.410;6.710;2024-02-28T02:30:52;23.40;;;11.43;;
81619;SDS011;71028;53.410;6.710;2024-02-28T02:33:18;25.92;;;9.57;;
81619;SDS011;71028;53.410;6.710;2024-02-28T02:35:44;24.35;;;10.82;;
81619;SDS011;71028;53.410;6.710;2024-02-28T02:38:10;24.27;;;12.13;;
81619;SDS011;71028;53.410;6.710;2024-02-28T02:40:36;23.02;;;9.23;;
81619;SDS011;71028;53.410;6.710;2024-02-28T02:43:02;25.40;;;11.32;;
81619;SDS011;71028;53.410;6.710;2024-02-28T02:45:28;23.58;;;9.68;;
81619;SDS011;71028;53.410;6.710;2024-02-28T02:47:54;22.38;;;10.43;;
81619;SDS011;71028;53.410;6.710;2024-02-28T02:50:21;23.98;;;10.50;;
81619;SDS011;71028;53.410;6.710;2024-02-28T02:52:47;23.08;;;10.82;;
81619;SDS011;71028;53.410;6.710;2024-02-28T02:55:13;23.70;;;9.30;;
81619;SDS011;71028;53.410;6.710;2024-02-28T02:57:40;24.33;;;10.50;;
81619;SDS011;71028;53.410;6.710;2024-02-28T03:00:09;24.17;;;11.30;;
81619;SDS011;71028;53.410;6.710;2024-02-28T03:02:35;26.95;;;10.82;;
81619;SDS011;71028;53.410;6.710;2024-02-28T03:05:05;24.90;;;11.57;;
81619;SDS011;71028;53.410;6.710;2024-02-28T03:07:31;21.67;;;9.85;;
81619;SDS011;71028;53.410;6.710;2024-02-28T03:09:58;24.85;;;11.38;;
81619;SDS011;71028;53.410;6.710;2024-02-28T03:12:24;24.33;;;11.63;;
81619;SDS011;71028;53.410;6.710;2024-02-28T03:14:50;24.73;;;12.20;;
81619;SDS011;71028;53.410;6.710;2024-02-28T03:17:16;26.75;;;12.07;;
81619;SDS011;71028;53.410;6.710;2024-02-28T03:19:42;28.10;;;11.48;;
81619;SDS011;71028;53.410;6.710;2024-02-28T03:22:08;22.88;;;10.32;;
81619;SDS011;71028;53.410;6.710;2024-02-28T03:24:34;28.67;;;11.82;;
81619;SDS011;71028;53.410;6.710;2024-02-28T03:27:03;26.95;;;11.68;;
81619;SDS011;71028;53.410;6.710;2024-02-28T03:29:29;25.85;;;9.85;;
81619;SDS011;71028;53.410;6.710;2024-02-28T03:31:56;23.52;;;10.32;;
81619;SDS011;71028;53.410;6.710;2024-02-28T03:34:22;26.77;;;11.80;;
81619;SDS011;71028;53.410;6.710;2024-02-28T03:36:48;29.08;;;11.52;;
81619;SDS011;71028;53.410;6.710;2024-02-28T03:39:14;26.17;;;10.82;;
81619;SDS011;71028;53.410;6.710;2024-02-28T03:41:40;24.30;;;10.60;;
81619;SDS011;71028;53.410;6.710;2024-02-28T03:44:06;22.73;;;10.50;;
81619;SDS011;71028;53.410;6.710;2024-02-28T03:46:32;30.23;;;12.93;;
81619;SDS011;71028;53.410;6.710;2024-02-28T03:48:58;25.42;;;10.48;;
81619;SDS011;71028;53.410;6.710;2024-02-28T03:51:24;25.42;;;11.48;;
81619;SDS011;71028;53.410;6.710;2024-02-28T03:53:50;25.70;;;10.68;;
81619;SDS011;71028;53.410;6.710;2024-02-28T03:56:23;25.05;;;10.85;;
81619;SDS011;71028;53.410;6.710;2024-02-28T03:58:50;26.80;;;10.48;;
81619;SDS011;71028;53.410;6.710;2024-02-28T04:01:16;26.70;;;12.05;;
81619;SDS011;71028;53.410;6.710;2024-02-28T04:03:42;26.02;;;11.27;;
81619;SDS011;71028;53.410;6.710;2024-02-28T04:06:08;26.48;;;10.80;;
81619;SDS011;71028;53.410;6.710;2024-02-28T04:08:34;29.42;;;11.02;;
81619;SDS011;71028;53.410;6.710;2024-02-28T04:11:00;25.35;;;11.30;;
81619;SDS011;71028;53.410;6.710;2024-02-28T04:13:26;27.70;;;11.60;;
81619;SDS011;71028;53.410;6.710;2024-02-28T04:15:52;29.27;;;11.52;;
81619;SDS011;71028;53.410;6.710;2024-02-28T04:18:18;27.88;;;12.00;;
81619;SDS011;71028;53.410;6.710;2024-02-28T04:20:44;25.95;;;11.45;;
81619;SDS011;71028;53.410;6.710;2024-02-28T04:23:10;22.58;;;10.07;;
81619;SDS011;71028;53.410;6.710;2024-02-28T04:25:36;20.38;;;10.35;;
81619;SDS011;71028;53.410;6.710;2024-02-28T04:28:05;22.13;;;10.63;;
81619;SDS011;71028;53.410;6.710;2024-02-28T04:30:31;23.00;;;11.70;;
81619;SDS011;71028;53.410;6.710;2024-02-28T04:32:57;22.17;;;12.07;;
81619;SDS011;71028;53.410;6.710;2024-02-28T04:35:23;27.73;;;10.88;;
81619;SDS011;71028;53.410;6.710;2024-02-28T04:37:49;25.38;;;10.93;;
81619;SDS011;71028;53.410;6.710;2024-02-28T04:40:15;23.30;;;11.55;;
81619;SDS011;71028;53.410;6.710;2024-02-28T04:42:42;24.85;;;12.38;;
81619;SDS011;71028;53.410;6.710;2024-02-28T04:45:08;23.63;;;11.13;;
81619;SDS011;71028;53.410;6.710;2024-02-28T04:47:34;27.73;;;10.63;;
81619;SDS011;71028;53.410;6.710;2024-02-28T04:50:01;25.75;;;11.00;;
81619;SDS011;71028;53.410;6.710;2024-02-28T04:52:29;23.10;;;9.73;;
81619;SDS011;71028;53.410;6.710;2024-02-28T04:54:55;28.67;;;12.73;;
81619;SDS011;71028;53.410;6.710;2024-02-28T04:57:21;24.88;;;10.80;;
81619;SDS011;71028;53.410;6.710;2024-02-28T04:59:48;26.38;;;10.55;;
81619;SDS011;71028;53.410;6.710;2024-02-28T05:02:14;23.75;;;10.73;;
81619;SDS011;71028;53.410;6.710;2024-02-28T05:04:40;27.35;;;11.73;;
81619;SDS011;71028;53.410;6.710;2024-02-28T05:07:06;30.02;;;12.40;;
81619;SDS011;71028;53.410;6.710;2024-02-28T05:09:32;29.77;;;13.10;;
81619;SDS011;71028;53.410;6.710;2024-02-28T05:11:58;28.80;;;11.57;;
81619;SDS011;71028;53.410;6.710;2024-02-28T05:14:25;26.30;;;11.50;;
81619;SDS011;71028;53.410;6.710;2024-02-28T05:16:51;25.15;;;10.88;;
81619;SDS011;71028;53.410;6.710;2024-02-28T05:19:16;31.00;;;12.48;;
81619;SDS011;71028;53.410;6.710;2024-02-28T05:21:43;25.48;;;11.18;;
81619;SDS011;71028;53.410;6.710;2024-02-28T05:24:09;25.08;;;10.68;;
81619;SDS011;71028;53.410;6.710;2024-02-28T05:26:36;29.70;;;11.38;;
81619;SDS011;71028;53.410;6.710;2024-02-28T05:29:02;25.08;;;10.75;;
81619;SDS011;71028;53.410;6.710;2024-02-28T05:31:28;26.67;;;12.73;;
81619;SDS011;71028;53.410;6.710;2024-02-28T05:33:56;29.27;;;12.07;;
81619;SDS011;71028;53.410;6.710;2024-02-28T05:36:23;27.13;;;12.23;;
81619;SDS011;71028;53.410;6.710;2024-02-28T05:38:49;25.55;;;10.98;;
81619;SDS011;71028;53.410;6.710;2024-02-28T05:41:16;24.52;;;11.95;;
81619;SDS011;71028;53.410;6.710;2024-02-28T05:43:42;28.10;;;11.82;;
81619;SDS011;71028;53.410;6.710;2024-02-28T05:46:08;25.67;;;11.38;;
81619;SDS011;71028;53.410;6.710;2024-02-28T05:48:34;27.42;;;12.18;;
81619;SDS011;71028;53.410;6.710;2024-02-28T05:51:00;26.65;;;11.50;;
81619;SDS011;71028;53.410;6.710;2024-02-28T05:53:27;24.75;;;11.35;;
81619;SDS011;71028;53.410;6.710;2024-02-28T05:55:56;22.58;;;10.95;;
81619;SDS011;71028;53.410;6.710;2024-02-28T05:58:22;26.60;;;10.70;;
81619;SDS011;71028;53.410;6.710;2024-02-28T06:00:50;28.17;;;11.95;;
81619;SDS011;71028;53.410;6.710;2024-02-28T06:03:16;23.83;;;12.55;;
81619;SDS011;71028;53.410;6.710;2024-02-28T06:05:42;26.00;;;12.10;;
81619;SDS011;71028;53.410;6.710;2024-02-28T06:08:08;32.53;;;12.98;;
81619;SDS011;71028;53.410;6.710;2024-02-28T06:10:34;24.60;;;12.25;;
81619;SDS011;71028;53.410;6.710;2024-02-28T06:13:00;28.92;;;13.63;;
81619;SDS011;71028;53.410;6.710;2024-02-28T06:15:26;27.70;;;12.68;;
81619;SDS011;71028;53.410;6.710;2024-02-28T06:17:52;30.15;;;12.48;;
81619;SDS011;71028;53.410;6.710;2024-02-28T06:20:18;26.45;;;11.25;;
81619;SDS011;71028;53.410;6.710;2024-02-28T06:22:44;31.13;;;13.85;;
81619;SDS011;71028;53.410;6.710;2024-02-28T06:25:10;30.98;;;12.40;;
81619;SDS011;71028;53.410;6.710;2024-02-28T06:27:43;32.17;;;12.38;;
81619;SDS011;71028;53.410;6.710;2024-02-28T06:30:10;28.52;;;12.77;;
81619;SDS011;71028;53.410;6.710;2024-02-28T06:32:37;31.38;;;12.52;;
81619;SDS011;71028;53.410;6.710;2024-02-28T06:35:03;31.80;;;12.98;;
81619;SDS011;71028;53.410;6.710;2024-02-28T06:37:29;28.27;;;12.15;;
81619;SDS011;71028;53.410;6.710;2024-02-28T06:39:55;29.65;;;14.48;;
81619;SDS011;71028;53.410;6.710;2024-02-28T06:42:21;28.60;;;11.93;;
81619;SDS011;71028;53.410;6.710;2024-02-28T06:44:47;26.08;;;12.02;;
81619;SDS011;71028;53.410;6.710;2024-02-28T06:47:13;26.83;;;11.50;;
81619;SDS011;71028;53.410;6.710;2024-02-28T06:49:39;29.67;;;12.20;;
81619;SDS011;71028;53.410;6.710;2024-02-28T06:52:05;33.42;;;13.88;;
81619;SDS011;71028;53.410;6.710;2024-02-28T06:54:31;29.77;;;12.77;;
81619;SDS011;71028;53.410;6.710;2024-02-28T06:56:57;30.10;;;14.13;;
81619;SDS011;71028;53.410;6.710;2024-02-28T06:59:23;33.95;;;13.68;;
81619;SDS011;71028;53.410;6.710;2024-02-28T07:01:49;32.70;;;13.43;;
81619;SDS011;71028;53.410;6.710;2024-02-28T07:04:15;30.45;;;13.10;;
81619;SDS011;71028;53.410;6.710;2024-02-28T07:06:42;28.50;;;13.82;;
81619;SDS011;71028;53.410;6.710;2024-02-28T07:09:08;30.50;;;11.65;;
81619;SDS011;71028;53.410;6.710;2024-02-28T07:11:34;33.95;;;13.23;;
81619;SDS011;71028;53.410;6.710;2024-02-28T07:14:00;33.40;;;13.27;;
81619;SDS011;71028;53.410;6.710;2024-02-28T07:16:30;35.10;;;13.90;;
81619;SDS011;71028;53.410;6.710;2024-02-28T07:18:58;33.20;;;13.45;;
81619;SDS011;71028;53.410;6.710;2024-02-28T07:21:24;33.42;;;13.25;;
81619;SDS011;71028;53.410;6.710;2024-02-28T07:23:50;36.28;;;14.95;;
81619;SDS011;71028;53.410;6.710;2024-02-28T07:26:16;38.95;;;14.48;;
81619;SDS011;71028;53.410;6.710;2024-02-28T07:28:42;30.30;;;13.77;;
81619;SDS011;71028;53.410;6.710;2024-02-28T07:31:17;35.72;;;14.00;;
81619;SDS011;71028;53.410;6.710;2024-02-28T07:33:44;36.65;;;13.45;;
81619;SDS011;71028;53.410;6.710;2024-02-28T07:36:10;37.88;;;15.82;;
81619;SDS011;71028;53.410;6.710;2024-02-28T07:38:36;33.38;;;13.40;;
81619;SDS011;71028;53.410;6.710;2024-02-28T07:41:02;34.70;;;14.45;;
81619;SDS011;71028;53.410;6.710;2024-02-28T07:43:29;33.53;;;13.88;;
81619;SDS011;71028;53.410;6.710;2024-02-28T07:45:58;36.25;;;14.20;;
81619;SDS011;71028;53.410;6.710;2024-02-28T07:48:24;39.40;;;17.50;;
81619;SDS011;71028;53.410;6.710;2024-02-28T07:50:50;35.15;;;14.15;;
81619;SDS011;71028;53.410;6.710;2024-02-28T07:53:19;35.92;;;14.65;;
81619;SDS011;71028;53.410;6.710;2024-02-28T07:55:45;47.20;;;16.15;;
81619;SDS011;71028;53.410;6.710;2024-02-28T07:58:11;37.83;;;14.93;;
81619;SDS011;71028;53.410;6.710;2024-02-28T08:00:37;39.80;;;14.73;;
81619;SDS011;71028;53.410;6.710;2024-02-28T08:03:03;46.65;;;16.52;;
81619;SDS011;71028;53.410;6.710;2024-02-28T08:05:29;41.05;;;15.40;;
81619;SDS011;71028;53.410;6.710;2024-02-28T08:07:57;41.60;;;15.98;;
81619;SDS011;71028;53.410;6.710;2024-02-28T08:10:23;39.60;;;14.77;;
81619;SDS011;71028;53.410;6.710;2024-02-28T08:12:49;37.92;;;13.93;;
81619;SDS011;71028;53.410;6.710;2024-02-28T08:15:15;41.78;;;15.98;;
81619;SDS011;71028;53.410;6.710;2024-02-28T08:17:41;47.70;;;17.10;;
81619;SDS011;71028;53.410;6.710;2024-02-28T08:20:07;43.25;;;15.02;;
81619;SDS011;71028;53.410;6.710;2024-02-28T08:22:33;42.35;;;17.98;;
81619;SDS011;71028;53.410;6.710;2024-02-28T08:24:59;40.72;;;14.65;;
81619;SDS011;71028;53.410;6.710;2024-02-28T08:27:25;47.42;;;16.92;;
81619;SDS011;71028;53.410;6.710;2024-02-28T08:29:51;48.50;;;15.65;;
81619;SDS011;71028;53.410;6.710;2024-02-28T08:32:17;38.85;;;15.85;;
81619;SDS011;71028;53.410;6.710;2024-02-28T08:34:44;44.90;;;17.83;;
81619;SDS011;71028;53.410;6.710;2024-02-28T08:37:14;44.75;;;15.82;;
81619;SDS011;71028;53.410;6.710;2024-02-28T08:39:42;37.85;;;15.32;;
81619;SDS011;71028;53.410;6.710;2024-02-28T08:42:08;47.75;;;17.08;;
81619;SDS011;71028;53.410;6.710;2024-02-28T08:44:34;45.75;;;17.63;;
81619;SDS011;71028;53.410;6.710;2024-02-28T08:47:00;42.17;;;16.73;;
81619;SDS011;71028;53.410;6.710;2024-02-28T08:49:26;44.33;;;15.52;;
81619;SDS011;71028;53.410;6.710;2024-02-28T08:51:52;39.45;;;15.50;;
81619;SDS011;71028;53.410;6.710;2024-02-28T08:54:18;35.42;;;14.88;;
81619;SDS011;71028;53.410;6.710;2024-02-28T08:56:44;37.45;;;14.88;;
81619;SDS011;71028;53.410;6.710;2024-02-28T08:59:10;38.05;;;15.73;;
81619;SDS011;71028;53.410;6.710;2024-02-28T09:01:36;36.13;;;16.02;;
81619;SDS011;71028;53.410;6.710;2024-02-28T09:04:02;38.35;;;15.35;;
81619;SDS011;71028;53.410;6.710;2024-02-28T09:06:28;36.90;;;15.45;;
81619;SDS011;71028;53.410;6.710;2024-02-28T09:08:54;42.55;;;15.20;;
81619;SDS011;71028;53.410;6.710;2024-02-28T09:11:20;37.13;;;14.65;;
81619;SDS011;71028;53.410;6.710;2024-02-28T09:13:47;35.08;;;14.85;;
81619;SDS011;71028;53.410;6.710;2024-02-28T09:16:13;35.17;;;13.77;;
81619;SDS011;71028;53.410;6.710;2024-02-28T09:18:39;39.55;;;15.60;;
81619;SDS011;71028;53.410;6.710;2024-02-28T09:21:05;31.80;;;15.60;;
81619;SDS011;71028;53.410;6.710;2024-02-28T09:23:31;33.22;;;16.50;;
81619;SDS011;71028;53.410;6.710;2024-02-28T09:25:57;33.80;;;13.93;;
81619;SDS011;71028;53.410;6.710;2024-02-28T09:28:23;30.73;;;14.68;;
81619;SDS011;71028;53.410;6.710;2024-02-28T09:30:49;31.80;;;14.93;;
81619;SDS011;71028;53.410;6.710;2024-02-28T09:33:16;33.03;;;14.45;;
81619;SDS011;71028;53.410;6.710;2024-02-28T09:35:44;31.35;;;14.57;;
81619;SDS011;71028;53.410;6.710;2024-02-28T09:38:10;29.88;;;14.85;;
81619;SDS011;71028;53.410;6.710;2024-02-28T09:40:36;35.35;;;15.82;;
81619;SDS011;71028;53.410;6.710;2024-02-28T09:43:03;34.03;;;14.68;;
81619;SDS011;71028;53.410;6.710;2024-02-28T09:45:30;32.45;;;14.30;;
81619;SDS011;71028;53.410;6.710;2024-02-28T09:48:00;29.88;;;14.80;;
81619;SDS011;71028;53.410;6.710;2024-02-28T09:50:26;30.83;;;14.82;;
81619;SDS011;71028;53.410;6.710;2024-02-28T09:52:52;31.35;;;14.50;;
81619;SDS011;71028;53.410;6.710;2024-02-28T09:55:19;35.25;;;14.98;;
81619;SDS011;71028;53.410;6.710;2024-02-28T09:57:47;29.35;;;14.00;;
81619;SDS011;71028;53.410;6.710;2024-02-28T10:00:13;31.73;;;14.18;;
81619;SDS011;71028;53.410;6.710;2024-02-28T10:02:40;29.85;;;14.88;;
81619;SDS011;71028;53.410;6.710;2024-02-28T10:05:08;29.20;;;15.02;;
81619;SDS011;71028;53.410;6.710;2024-02-28T10:07:35;31.02;;;15.43;;
81619;SDS011;71028;53.410;6.710;2024-02-28T10:10:00;33.55;;;14.00;;
81619;SDS011;71028;53.410;6.710;2024-02-28T10:12:27;31.10;;;13.43;;
81619;SDS011;71028;53.410;6.710;2024-02-28T10:14:53;29.38;;;14.88;;
81619;SDS011;71028;53.410;6.710;2024-02-28T10:17:19;30.55;;;14.45;;
81619;SDS011;71028;53.410;6.710;2024-02-28T10:19:45;33.13;;;14.43;;
81619;SDS011;71028;53.410;6.710;2024-02-28T10:22:12;28.38;;;12.98;;
81619;SDS011;71028;53.410;6.710;2024-02-28T10:24:38;29.23;;;13.68;;
81619;SDS011;71028;53.410;6.710;2024-02-28T10:27:04;32.40;;;14.30;;
81619;SDS011;71028;53.410;6.710;2024-02-28T10:29:30;29.70;;;13.52;;
81619;SDS011;71028;53.410;6.710;2024-02-28T10:31:59;28.63;;;13.18;;
81619;SDS011;71028;53.410;6.710;2024-02-28T10:34:26;31.38;;;13.82;;
81619;SDS011;71028;53.410;6.710;2024-02-28T10:36:52;33.90;;;13.75;;
81619;SDS011;71028;53.410;6.710;2024-02-28T10:39:18;29.58;;;13.32;;
81619;SDS011;71028;53.410;6.710;2024-02-28T10:41:46;24.50;;;12.38;;
81619;SDS011;71028;53.410;6.710;2024-02-28T10:44:14;31.15;;;12.77;;
81619;SDS011;71028;53.410;6.710;2024-02-28T10:46:41;30.20;;;14.13;;
81619;SDS011;71028;53.410;6.710;2024-02-28T10:49:08;30.45;;;13.43;;
81619;SDS011;71028;53.410;6.710;2024-02-28T10:51:35;27.48;;;12.90;;
81619;SDS011;71028;53.410;6.710;2024-02-28T10:54:07;26.00;;;12.20;;
81619;SDS011;71028;53.410;6.710;2024-02-28T10:56:36;29.13;;;13.45;;
81619;SDS011;71028;53.410;6.710;2024-02-28T10:59:03;26.10;;;12.98;;
81619;SDS011;71028;53.410;6.710;2024-02-28T11:01:30;29.75;;;13.48;;
81619;SDS011;71028;53.410;6.710;2024-02-28T11:03:56;24.23;;;13.10;;
81619;SDS011;71028;53.410;6.710;2024-02-28T11:06:22;28.30;;;13.10;;
81619;SDS011;71028;53.410;6.710;2024-02-28T11:08:49;26.00;;;13.05;;
81619;SDS011;71028;53.410;6.710;2024-02-28T11:11:18;28.08;;;12.88;;
81619;SDS011;71028;53.410;6.710;2024-02-28T11:13:54;31.60;;;15.43;;
81619;SDS011;71028;53.410;6.710;2024-02-28T11:16:32;24.60;;;12.35;;
81619;SDS011;71028;53.410;6.710;2024-02-28T11:18:59;26.67;;;12.75;;
81619;SDS011;71028;53.410;6.710;2024-02-28T11:21:25;25.83;;;12.75;;
81619;SDS011;71028;53.410;6.710;2024-02-28T11:23:52;27.38;;;11.93;;
81619;SDS011;71028;53.410;6.710;2024-02-28T11:26:18;23.88;;;12.10;;
81619;SDS011;71028;53.410;6.710;2024-02-28T11:28:46;25.10;;;12.00;;
81619;SDS011;71028;53.410;6.710;2024-02-28T11:31:12;26.77;;;12.35;;
81619;SDS011;71028;53.410;6.710;2024-02-28T11:33:38;25.15;;;12.77;;
81619;SDS011;71028;53.410;6.710;2024-02-28T11:36:04;24.90;;;12.05;;
81619;SDS011;71028;53.410;6.710;2024-02-28T11:38:32;26.60;;;12.23;;
81619;SDS011;71028;53.410;6.710;2024-02-28T11:41:03;25.10;;;12.15;;
81619;SDS011;71028;53.410;6.710;2024-02-28T11:43:32;28.13;;;11.70;;
81619;SDS011;71028;53.410;6.710;2024-02-28T11:46:00;24.77;;;11.52;;
81619;SDS011;71028;53.410;6.710;2024-02-28T11:48:26;29.15;;;12.25;;
81619;SDS011;71028;53.410;6.710;2024-02-28T11:50:53;28.00;;;13.23;;
81619;SDS011;71028;53.410;6.710;2024-02-28T11:53:19;25.08;;;12.80;;
81619;SDS011;71028;53.410;6.710;2024-02-28T11:55:45;24.48;;;12.98;;
81619;SDS011;71028;53.410;6.710;2024-02-28T11:58:13;25.40;;;13.10;;
81619;SDS011;71028;53.410;6.710;2024-02-28T12:00:51;27.85;;;12.45;;
81619;SDS011;71028;53.410;6.710;2024-02-28T12:03:21;26.90;;;13.13;;
81619;SDS011;71028;53.410;6.710;2024-02-28T12:05:47;24.00;;;11.15;;
81619;SDS011;71028;53.410;6.710;2024-02-28T12:08:13;24.90;;;12.18;;
81619;SDS011;71028;53.410;6.710;2024-02-28T12:10:39;25.17;;;11.98;;
81619;SDS011;71028;53.410;6.710;2024-02-28T12:13:06;24.50;;;11.98;;
81619;SDS011;71028;53.410;6.710;2024-02-28T12:15:32;23.42;;;10.25;;
81619;SDS011;71028;53.410;6.710;2024-02-28T12:17:59;31.95;;;12.10;;
81619;SDS011;71028;53.410;6.710;2024-02-28T12:20:25;24.98;;;11.95;;
81619;SDS011;71028;53.410;6.710;2024-02-28T12:22:51;23.80;;;11.02;;
81619;SDS011;71028;53.410;6.710;2024-02-28T12:25:17;21.65;;;10.75;;
81619;SDS011;71028;53.410;6.710;2024-02-28T12:27:43;23.45;;;10.60;;
81619;SDS011;71028;53.410;6.710;2024-02-28T12:30:09;26.23;;;13.20;;
81619;SDS011;71028;53.410;6.710;2024-02-28T12:32:35;22.77;;;11.65;;
81619;SDS011;71028;53.410;6.710;2024-02-28T12:35:01;22.33;;;11.02;;
81619;SDS011;71028;53.410;6.710;2024-02-28T12:37:29;24.30;;;11.77;;
81619;SDS011;71028;53.410;6.710;2024-02-28T12:39:55;21.75;;;11.93;;
81619;SDS011;71028;53.410;6.710;2024-02-28T12:42:21;24.50;;;12.30;;
81619;SDS011;71028;53.410;6.710;2024-02-28T12:44:47;19.33;;;10.10;;
81619;SDS011;71028;53.410;6.710;2024-02-28T12:47:13;24.98;;;11.07;;
81619;SDS011;71028;53.410;6.710;2024-02-28T12:49:39;22.08;;;10.77;;
81619;SDS011;71028;53.410;6.710;2024-02-28T12:52:05;22.05;;;10.00;;
81619;SDS011;71028;53.410;6.710;2024-02-28T12:54:32;20.10;;;10.32;;
81619;SDS011;71028;53.410;6.710;2024-02-28T12:56:58;21.65;;;11.10;;
81619;SDS011;71028;53.410;6.710;2024-02-28T12:59:27;22.13;;;10.85;;
81619;SDS011;71028;53.410;6.710;2024-02-28T13:01:53;21.50;;;10.20;;
81619;SDS011;71028;53.410;6.710;2024-02-28T13:04:19;23.65;;;11.25;;
81619;SDS011;71028;53.410;6.710;2024-02-28T13:06:46;27.10;;;11.48;;
81619;SDS011;71028;53.410;6.710;2024-02-28T13:09:12;21.75;;;11.02;;
81619;SDS011;71028;53.410;6.710;2024-02-28T13:11:38;25.52;;;12.02;;
81619;SDS011;71028;53.410;6.710;2024-02-28T13:14:04;24.67;;;11.77;;
81619;SDS011;71028;53.410;6.710;2024-02-28T13:16:30;26.88;;;12.80;;
81619;SDS011;71028;53.410;6.710;2024-02-28T13:18:56;29.95;;;13.27;;
81619;SDS011;71028;53.410;6.710;2024-02-28T13:21:22;28.95;;;14.27;;
81619;SDS011;71028;53.410;6.710;2024-02-28T13:23:48;32.03;;;14.27;;
81619;SDS011;71028;53.410;6.710;2024-02-28T13:26:15;29.60;;;13.00;;
81619;SDS011;71028;53.410;6.710;2024-02-28T13:28:45;24.48;;;12.43;;
81619;SDS011;71028;53.410;6.710;2024-02-28T13:31:11;28.70;;;13.55;;
81619;SDS011;71028;53.410;6.710;2024-02-28T13:33:37;25.27;;;12.70;;
81619;SDS011;71028;53.410;6.710;2024-02-28T13:36:04;26.23;;;13.25;;
81619;SDS011;71028;53.410;6.710;2024-02-28T13:38:30;28.42;;;12.77;;
81619;SDS011;71028;53.410;6.710;2024-02-28T13:40:56;29.13;;;13.57;;
81619;SDS011;71028;53.410;6.710;2024-02-28T13:43:22;23.88;;;11.93;;
81619;SDS011;71028;53.410;6.710;2024-02-28T13:45:49;24.50;;;11.77;;
81619;SDS011;71028;53.410;6.710;2024-02-28T13:48:19;25.65;;;12.88;;
81619;SDS011;71028;53.410;6.710;2024-02-28T13:50:47;24.45;;;11.48;;
81619;SDS011;71028;53.410;6.710;2024-02-28T13:53:13;28.05;;;12.73;;
81619;SDS011;71028;53.410;6.710;2024-02-28T13:55:40;25.48;;;13.05;;
81619;SDS011;71028;53.410;6.710;2024-02-28T13:58:07;27.63;;;12.07;;
81619;SDS011;71028;53.410;6.710;2024-02-28T14:00:34;21.60;;;10.52;;
81619;SDS011;71028;53.410;6.710;2024-02-28T14:03:01;20.42;;;10.68;;
81619;SDS011;71028;53.410;6.710;2024-02-28T14:05:28;25.88;;;11.07;;
81619;SDS011;71028;53.410;6.710;2024-02-28T14:07:54;25.98;;;11.43;;
81619;SDS011;71028;53.410;6.710;2024-02-28T14:10:20;24.70;;;11.77;;
81619;SDS011;71028;53.410;6.710;2024-02-28T14:12:47;21.38;;;11.55;;
81619;SDS011;71028;53.410;6.710;2024-02-28T14:15:14;39.20;;;14.45;;
81619;SDS011;71028;53.410;6.710;2024-02-28T14:17:40;24.73;;;12.95;;